Main page
METAR-TAF:

METAR-TAF

Airports :

Tehran, Iran

Mehrabad International Airport

latitude: 35-41N, longitude: 051-21E, elevation: 1204 m

Current weather observation

The report was made 37 minutes ago, at 15:30 UTC
Wind 6 kt from the South
Temperature 21°C
Humidity 21%
Pressure 1019 hPa
Visibility 10 km or more
Few clouds at a height of 4000 ft

METAR: OIII 251530Z 17006KT 9999 FEW040 21/M02 Q1019 A3010

Time: 20:37 (16:07 UTC)

Forecast

The report was made 4 hours and 57 minutes ago, at 11:10 UTC
Forecast valid from 25 at 12 UTC to 26 at 18 UTC
Wind 10 kt from the Southeast
Visibility: 7000 m
Temporary
from 26 at 06 UTC to 26 at 12 UTC
Few clouds at a height of 3500 ft, Towering cumulus.
Scattered clouds at a height of 4000 ft

TAF: OIII 251110Z 2512/2618 13005MPS 7000 NSC TEMPO 2606/2612 FEW035TCU SCT040

Weather observations and forecasts of more than 4000 airports (METAR and TAF reports).

The available stations are represented by yellow and red dots on the map.

Hover mouse over dot to see the name of the station.

Then click to see weather observations and forecasts.

To change the map : click on the green buttons with a black cross to zoom in, on the green button with a dash to zoom out, or on the green arrows for adjacent maps.


METAR-TAF: